createdAt,value
2023-01-19T00:54:27.657Z,99876.59
2023-01-19T01:01:16.078Z,99874.72
2023-01-19T01:51:47.929Z,99879.75
2023-01-19T01:55:26.301Z,99870.81
2023-01-19T02:12:37.443Z,99895.78
2023-01-19T02:15:34.070Z,99890.19
2023-01-19T02:18:08.061Z,99886.97
2023-01-19T02:21:11.783Z,99897.16
2023-01-19T02:24:02.984Z,99884.69
2023-01-19T02:26:41.139Z,99893.34
2023-01-19T02:29:24.278Z,99896.03
2023-01-19T02:32:15.546Z,99891.44
2023-01-19T02:34:48.374Z,99892.97
2023-01-19T02:37:37.620Z,99900.09
2023-01-19T02:40:22.008Z,99887.81
2023-01-19T02:43:01.341Z,99907.13
2023-01-19T02:45:37.688Z,99901.03
2023-01-19T02:48:10.405Z,99908.34
2023-01-19T02:50:49.503Z,99909.63
2023-01-19T02:54:00.693Z,99902.97
2023-01-19T02:57:29.363Z,99910.66
2023-01-19T03:00:42.485Z,99914.69
2023-01-19T03:03:48.757Z,99907.78
2023-01-19T03:06:52.775Z,99924.00
2023-01-19T03:10:07.747Z,99921.13
2023-01-19T03:12:51.747Z,99917.03
2023-01-19T03:15:56.610Z,99909.19
2023-01-19T03:18:35.826Z,99920.50
2023-01-19T03:21:13.401Z,99925.09
2023-01-19T03:23:51.664Z,99928.38
2023-01-19T03:26:30.763Z,99930.09
2023-01-19T03:29:07.032Z,99935.66
2023-01-19T03:31:45.586Z,99940.69
2023-01-19T03:34:23.903Z,99940.69
2023-01-19T03:37:04.793Z,99938.38
2023-01-19T03:39:38.324Z,99939.16
2023-01-19T03:42:18.050Z,99938.00
2023-01-19T03:45:07.530Z,99947.50
2023-01-19T03:47:40.519Z,99934.66
2023-01-19T03:50:27.565Z,99938.97
2023-01-19T03:53:21.803Z,99942.81
2023-01-19T03:56:03.748Z,99963.63
2023-01-19T03:58:36.398Z,99956.91
2023-01-19T04:01:09.389Z,99962.75
2023-01-19T04:03:53.023Z,99962.19
2023-01-19T04:06:42.475Z,99955.09
2023-01-19T04:12:02.150Z,99973.31
2023-01-19T04:14:34.904Z,99982.16
2023-01-19T04:17:14.209Z,99971.22
2023-01-19T04:20:00.368Z,99975.25
2023-01-19T04:25:22.349Z,99990.41
2023-01-19T04:28:01.058Z,100008.94
2023-01-19T04:33:24.377Z,100000.84
2023-01-19T04:35:57.518Z,100013.31
2023-01-19T04:38:36.336Z,100023.22
2023-01-19T04:41:09.108Z,100011.69
2023-01-19T04:43:42.088Z,100018.00
2023-01-19T04:46:15.607Z,100017.03
2023-01-19T04:48:48.264Z,100030.00
2023-01-19T04:51:20.810Z,100022.59
2023-01-19T04:53:54.190Z,100028.97
2023-01-19T04:56:26.848Z,100041.63
2023-01-19T04:58:59.382Z,100044.88
2023-01-19T05:01:43.926Z,100030.13
2023-01-19T05:04:29.216Z,100023.56
2023-01-19T05:07:02.329Z,100020.50
2023-01-19T05:12:34.016Z,100007.84
2023-01-19T05:15:18.259Z,99981.97
2023-01-19T05:17:58.265Z,99978.69
2023-01-19T05:20:36.702Z,99988.75
2023-01-19T05:23:09.550Z,99983.69
2023-01-19T05:25:44.605Z,99983.78
2023-01-19T05:28:17.382Z,99967.47
2023-01-19T05:31:04.777Z,99958.16
2023-01-19T05:33:49.585Z,99955.38
2023-01-19T05:36:22.140Z,99966.97
2023-01-19T05:38:55.201Z,99973.03
2023-01-19T05:41:27.934Z,99974.84
2023-01-19T05:44:00.561Z,99976.00
2023-01-19T05:46:48.866Z,99984.06
2023-01-19T05:49:36.748Z,100003.63
2023-01-19T05:52:22.133Z,99998.44
2023-01-19T05:54:55.241Z,100006.41
2023-01-19T05:57:27.822Z,100001.81
2023-01-19T06:00:00.435Z,100004.59
2023-01-19T06:02:33.056Z,100007.94
2023-01-19T06:05:06.422Z,100005.94
2023-01-19T06:07:51.031Z,100016.22
2023-01-19T06:10:23.781Z,100014.22
2023-01-19T06:12:56.524Z,100020.63
2023-01-19T06:15:32.465Z,100025.34
2023-01-19T06:18:17.348Z,100015.16
2023-01-19T06:20:58.860Z,100024.94
2023-01-19T06:23:37.382Z,100030.34
2023-01-19T06:26:10.181Z,100027.63
2023-01-19T06:28:47.397Z,100019.84
2023-01-19T06:31:20.083Z,100030.88
2023-01-19T06:33:52.824Z,100032.03
2023-01-19T06:36:25.789Z,100053.91
2023-01-19T06:38:58.970Z,100054.47
2023-01-19T06:41:34.101Z,100059.63
2023-01-19T06:44:06.806Z,100058.22
2023-01-19T06:46:39.394Z,100059.81
2023-01-19T06:49:11.949Z,100054.53
2023-01-19T06:51:53.783Z,100073.22
2023-01-19T06:54:27.112Z,100072.78
2023-01-19T07:00:00.833Z,100081.81
2023-01-19T07:02:43.489Z,100087.75
2023-01-19T07:05:16.303Z,100089.31
2023-01-19T07:07:57.054Z,100094.47
2023-01-19T07:11:26.947Z,100096.78
2023-01-19T07:13:22.110Z,100098.09
2023-01-19T07:15:55.080Z,100106.75
2023-01-19T07:18:27.797Z,100111.63
2023-01-19T07:21:09.804Z,100111.63
2023-01-19T07:23:43.435Z,100122.56
2023-01-19T07:26:29.482Z,100125.13
2023-01-19T07:29:14.053Z,100128.72
2023-01-19T07:31:48.951Z,100126.06
2023-01-19T07:34:21.541Z,100137.03
2023-01-19T07:36:56.494Z,100138.41
2023-01-19T07:39:30.648Z,100134.34
2023-01-19T07:42:07.119Z,100130.31
2023-01-19T07:44:42.187Z,100129.00
2023-01-19T07:47:14.997Z,100140.19
2023-01-19T07:49:47.544Z,100146.53
2023-01-19T07:52:20.222Z,100148.84
2023-01-19T07:54:53.053Z,100155.97
2023-01-19T07:57:25.698Z,100158.78
2023-01-19T08:00:01.018Z,100156.25
2023-01-19T08:02:38.904Z,100156.66
2023-01-19T08:05:19.352Z,100166.44
2023-01-19T08:08:05.663Z,100154.91
2023-01-19T08:10:47.656Z,100166.44
2023-01-19T08:13:20.442Z,100176.59
2023-01-19T08:15:54.591Z,100179.38
2023-01-19T08:18:30.376Z,100181.50
2023-01-19T08:21:05.581Z,100175.66
2023-01-19T08:23:38.305Z,100181.78
2023-01-19T08:26:29.863Z,100193.50
2023-01-19T08:29:05.822Z,100193.50
2023-01-19T08:31:39.901Z,100200.59
2023-01-19T08:34:12.562Z,100206.47
2023-01-19T08:36:45.291Z,100206.19
2023-01-19T08:39:18.225Z,100214.66
2023-01-19T08:41:52.579Z,100226.09
2023-01-19T08:44:25.132Z,100224.06
2023-01-19T08:47:17.412Z,100230.69
2023-01-19T08:49:58.510Z,100236.06
2023-01-19T08:52:37.222Z,100230.19
2023-01-19T08:55:11.361Z,100237.88
2023-01-19T08:57:53.094Z,100244.97
2023-01-19T09:00:27.565Z,100241.13
2023-01-19T09:03:03.594Z,100241.22
2023-01-19T09:05:39.127Z,100251.91
2023-01-19T09:08:24.554Z,100246.50
2023-01-19T09:10:57.164Z,100255.75
2023-01-19T09:13:31.063Z,100262.84
2023-01-19T09:16:04.528Z,100243.81
2023-01-19T09:18:40.340Z,100255.75
2023-01-19T09:21:13.862Z,100256.28
2023-01-19T09:31:07.359Z,100272.22
2023-01-19T09:34:06.433Z,100273.50
2023-01-19T09:36:54.332Z,100266.16
2023-01-19T09:39:27.102Z,100265.13
2023-01-19T09:42:30.709Z,100279.91
2023-01-19T09:45:13.539Z,100277.88
2023-01-19T09:47:49.291Z,100275.84
2023-01-19T09:50:34.114Z,100279.91
2023-01-19T09:53:40.702Z,100291.22
2023-01-19T09:56:18.576Z,100293.72
2023-01-19T09:58:52.099Z,100298.56
2023-01-19T10:01:31.470Z,100302.66
2023-01-19T10:04:33.121Z,100302.66
2023-01-19T10:07:53.324Z,100297.13
2023-01-19T10:10:34.330Z,100306.00
2023-01-19T10:13:39.706Z,100309.06
2023-01-19T10:16:44.394Z,100309.84
2023-01-19T10:19:33.827Z,100305.78
2023-01-19T10:22:26.793Z,100307.09
2023-01-19T10:25:07.402Z,100312.41
2023-01-19T10:27:40.559Z,100312.41
2023-01-19T10:30:25.996Z,100316.25
2023-01-19T10:32:59.494Z,100304.81
2023-01-19T10:35:32.443Z,100311.44
2023-01-19T10:38:07.589Z,100319.31
2023-01-19T10:40:55.087Z,100327.97
2023-01-19T10:43:48.052Z,100317.63
2023-01-19T10:46:54.692Z,100319.41
2023-01-19T10:49:44.946Z,100316.88
2023-01-19T10:52:37.043Z,100327.06
2023-01-19T10:55:30.184Z,100320.22
2023-01-19T10:58:02.869Z,100325.53
2023-01-19T11:00:38.726Z,100325.53
2023-01-19T11:03:25.612Z,100326.84
2023-01-19T11:06:30.778Z,100329.16
2023-01-19T11:09:12.068Z,100327.47
2023-01-19T11:11:49.562Z,100332.44
2023-01-19T11:14:25.032Z,100330.41
2023-01-19T11:17:04.921Z,100333.22
2023-01-19T11:19:37.598Z,100334.19
2023-01-19T11:22:22.844Z,100329.16
2023-01-19T11:25:05.364Z,100325.38
2023-01-19T11:27:38.111Z,100324.34
2023-01-19T11:30:25.735Z,100325.66
2023-01-19T11:32:58.615Z,100323.34
2023-01-19T11:35:41.652Z,100321.59
2023-01-19T11:38:23.366Z,100331.53
2023-01-19T11:40:59.234Z,100333.56
2023-01-19T11:43:48.045Z,100321.88
2023-01-19T11:46:27.001Z,100319.88
2023-01-19T11:49:08.316Z,100322.16
2023-01-19T11:52:01.831Z,100323.22
2023-01-19T11:54:56.571Z,100322.69
2023-01-19T11:57:29.434Z,100326.25
2023-01-19T12:00:31.416Z,100322.69
2023-01-19T12:03:30.665Z,100315.59
2023-01-19T12:09:19.134Z,100321.72
2023-01-19T12:12:06.040Z,100317.19
2023-01-19T12:15:02.510Z,100322.28
2023-01-19T12:17:45.726Z,100316.91
2023-01-19T12:20:36.523Z,100323.31
2023-01-19T12:23:33.573Z,100321.06
2023-01-19T12:26:30.745Z,100322.81
2023-01-19T12:29:13.630Z,100322.81
2023-01-19T12:32:16.405Z,100323.63
2023-01-19T12:34:52.159Z,100322.59
2023-01-19T12:37:31.982Z,100321.34
2023-01-19T12:40:24.450Z,100328.75
2023-01-19T12:43:04.869Z,100326.44
2023-01-19T12:45:39.761Z,100318.31
2023-01-19T12:48:27.336Z,100323.22
2023-01-19T12:50:59.908Z,100317.84
2023-01-19T12:53:32.555Z,100325.47
2023-01-19T12:56:09.976Z,100318.59
2023-01-19T12:58:49.409Z,100326.72
2023-01-19T13:01:24.845Z,100326.22
2023-01-19T13:04:01.242Z,100325.75
2023-01-19T13:06:49.150Z,100336.22
2023-01-19T13:09:35.530Z,100326.97
2023-01-19T13:12:13.831Z,100334.13
2023-01-19T13:14:46.886Z,100324.91
2023-01-19T13:17:34.168Z,100334.88
2023-01-19T13:20:27.569Z,100339.72
2023-01-19T13:23:25.447Z,100339.72
2023-01-19T13:26:15.859Z,100334.53
2023-01-19T13:28:55.009Z,100340.38
2023-01-19T13:31:35.695Z,100339.59
2023-01-19T13:34:17.279Z,100340.56
2023-01-19T13:37:02.093Z,100327.88
2023-01-19T13:39:40.539Z,100337.50
2023-01-19T13:42:31.624Z,100332.69
2023-01-19T13:45:34.495Z,100327.88
2023-01-19T13:48:13.934Z,100345.63
2023-01-19T13:51:17.943Z,100333.47
2023-01-19T13:53:56.357Z,100326.78
2023-01-19T13:56:30.544Z,100338.50
2023-01-19T13:59:11.762Z,100343.72
2023-01-19T14:01:46.736Z,100341.56
2023-01-19T14:04:34.982Z,100337.50
2023-01-19T14:07:26.402Z,100339.53
2023-01-19T14:10:06.707Z,100340.78
2023-01-19T14:12:51.215Z,100332.91
2023-01-19T14:15:34.615Z,100338.00
2023-01-19T14:18:16.266Z,100352.53
2023-01-19T14:21:03.632Z,100354.28
2023-01-19T14:23:49.179Z,100351.75
2023-01-19T14:26:52.225Z,100353.84
2023-01-19T14:29:32.714Z,100353.28
2023-01-19T14:32:25.523Z,100356.91
2023-01-19T14:35:04.556Z,100353.56
2023-01-19T14:37:47.195Z,100356.63
2023-01-19T14:40:24.362Z,100355.38
2023-01-19T14:43:06.102Z,100356.91
2023-01-19T14:45:43.247Z,100351.31
2023-01-19T14:48:20.603Z,100359.97
2023-01-19T14:51:03.792Z,100355.94
2023-01-19T14:53:38.370Z,100357.47
2023-01-19T14:56:11.027Z,100363.81
2023-01-19T14:58:43.630Z,100361.53
2023-01-19T15:01:16.346Z,100365.09
2023-01-19T15:03:48.938Z,100370.19
2023-01-19T15:06:21.752Z,100369.41
2023-01-19T15:08:54.738Z,100373.00
2023-01-19T15:11:34.914Z,100387.25
2023-01-19T15:14:14.458Z,100383.19
2023-01-19T15:16:48.167Z,100383.19
2023-01-19T15:19:21.058Z,100382.41
2023-01-19T15:21:53.768Z,100383.47
2023-01-19T15:24:26.397Z,100389.06
2023-01-19T15:27:02.059Z,100385.97
2023-01-19T15:29:34.837Z,100395.44
2023-01-19T15:32:15.286Z,100398.69
2023-01-19T15:34:47.962Z,100388.75
2023-01-19T15:37:20.532Z,100385.69
2023-01-19T15:39:53.046Z,100392.75
2023-01-19T15:42:25.675Z,100407.78
2023-01-19T15:44:58.385Z,100411.84
2023-01-19T15:47:31.054Z,100415.59
2023-01-19T15:50:03.801Z,100418.91
2023-01-19T15:52:36.359Z,100426.50
2023-01-19T15:55:15.783Z,100430.28
2023-01-19T15:57:49.333Z,100432.06
2023-01-19T16:00:22.415Z,100440.91
2023-01-19T16:03:00.860Z,100443.16
2023-01-19T16:05:42.539Z,100437.56
2023-01-19T16:08:22.138Z,100439.22
2023-01-19T16:10:54.879Z,100455.53
2023-01-19T16:13:37.458Z,100458.50
2023-01-19T16:16:28.417Z,100456.28
2023-01-19T16:19:01.123Z,100458.25
2023-01-19T16:22:19.975Z,100454.34
2023-01-19T16:27:51.380Z,100466.75
2023-01-19T16:30:24.035Z,100467.75
2023-01-19T16:32:56.590Z,100460.34
2023-01-19T16:35:33.163Z,100460.06
2023-01-19T16:38:05.853Z,100462.56
2023-01-19T16:40:38.801Z,100459.69
2023-01-19T16:43:12.423Z,100451.31
2023-01-19T16:46:01.800Z,100466.03
2023-01-19T16:48:34.859Z,100462.91
2023-01-19T16:51:07.629Z,100465.88
2023-01-19T16:53:40.181Z,100474.25
2023-01-19T16:56:14.799Z,100477.28
2023-01-19T16:58:47.673Z,100469.28
2023-01-19T17:01:21.340Z,100475.06
2023-01-19T17:03:54.872Z,100478.16
2023-01-19T17:06:28.667Z,100484.97
2023-01-19T17:09:01.320Z,100479.81
2023-01-19T17:11:34.948Z,100488.47
2023-01-19T17:14:13.541Z,100486.63
2023-01-19T17:16:47.569Z,100484.81
2023-01-19T17:19:22.130Z,100488.03
2023-01-19T17:21:54.956Z,100476.81
2023-01-19T17:24:27.463Z,100482.09
2023-01-19T17:27:00.043Z,100486.13
2023-01-19T17:29:32.731Z,100484.03
2023-01-19T17:32:05.615Z,100489.31
2023-01-19T17:34:38.285Z,100483.44
2023-01-19T17:37:10.783Z,100485.19
2023-01-19T17:39:43.326Z,100488.91
2023-01-19T17:42:15.939Z,100490.94
2023-01-19T17:44:49.448Z,100490.38
2023-01-19T17:47:25.579Z,100495.19
2023-01-19T17:49:58.133Z,100485.47
2023-01-19T17:52:31.359Z,100496.63
2023-01-19T17:55:04.278Z,100497.88
2023-01-19T17:57:37.133Z,100493.25
2023-01-19T18:00:10.859Z,100497.31
2023-01-19T18:02:43.734Z,100495.47
2023-01-19T18:05:16.874Z,100496.72
2023-01-19T18:07:49.475Z,100506.34
2023-01-19T18:10:21.992Z,100499.41
2023-01-19T18:12:54.460Z,100495.56
2023-01-19T18:15:26.958Z,100495.28
2023-01-19T18:17:59.447Z,100500.56
2023-01-19T18:20:32.271Z,100493.63
2023-01-19T18:23:04.963Z,100491.59
2023-01-19T18:25:37.847Z,100497.09
2023-01-19T18:28:10.597Z,100505.75
2023-01-19T18:30:43.281Z,100510.06
2023-01-19T18:33:16.034Z,100511.34
2023-01-19T18:35:48.850Z,100511.34
2023-01-19T18:38:21.621Z,100515.19
2023-01-19T18:41:11.380Z,100515.75
2023-01-19T18:43:44.912Z,100507.56
2023-01-19T18:46:17.788Z,100514.50
2023-01-19T18:48:50.412Z,100513.28
2023-01-19T18:51:23.124Z,100517.88
2023-01-19T18:53:58.088Z,100522.19
2023-01-19T18:56:30.601Z,100520.28
2023-01-19T18:59:03.194Z,100522.13
2023-01-19T19:01:36.716Z,100523.94
2023-01-19T19:04:09.457Z,100527.03
2023-01-19T19:06:42.018Z,100528.56
2023-01-19T19:09:14.632Z,100520.19
2023-01-19T19:11:47.249Z,100527.69
2023-01-19T19:14:19.889Z,100530.78
2023-01-19T19:16:52.585Z,100530.31
2023-01-19T19:19:25.247Z,100527.03
2023-01-19T19:21:57.815Z,100529.63
2023-01-19T19:24:30.768Z,100527.41
2023-01-19T19:27:03.530Z,100527.72
2023-01-19T19:29:36.076Z,100525.19
2023-01-19T19:32:08.838Z,100523.69
2023-01-19T19:34:41.601Z,100529.84
2023-01-19T19:37:14.071Z,100530.41
2023-01-19T19:39:48.083Z,100535.97
2023-01-19T19:42:20.768Z,100535.97
2023-01-19T19:44:54.923Z,100542.66
2023-01-19T19:47:30.320Z,100534.44
2023-01-19T19:50:02.862Z,100543.44
2023-01-19T19:52:41.010Z,100550.25
2023-01-19T19:55:13.698Z,100547.75
2023-01-19T19:57:46.368Z,100551.03
2023-01-19T20:00:19.529Z,100559.88
2023-01-19T20:02:52.174Z,100551.66
2023-01-19T20:05:24.839Z,100557.75
2023-01-19T20:07:57.375Z,100567.94
2023-01-19T20:10:30.414Z,100572.00
2023-01-19T20:13:04.794Z,100571.41
2023-01-19T20:15:39.159Z,100581.31
2023-01-19T20:18:11.774Z,100581.78
2023-01-19T20:20:44.922Z,100586.63
2023-01-19T20:23:17.620Z,100593.16
2023-01-19T20:25:50.294Z,100597.97
2023-01-19T20:28:22.996Z,100592.59
2023-01-19T20:30:55.636Z,100596.59
2023-01-19T20:33:29.653Z,100596.06
2023-01-19T20:36:03.180Z,100597.75
2023-01-19T20:38:36.142Z,100606.41
2023-01-19T20:41:11.933Z,100613.72
2023-01-19T20:43:45.027Z,100610.66
2023-01-19T20:46:18.372Z,100620.28
2023-01-19T20:48:53.538Z,100618.72
2023-01-19T20:51:26.826Z,100621.44
2023-01-19T20:53:59.553Z,100625.28
2023-01-19T20:56:32.071Z,100630.25
2023-01-19T20:59:04.579Z,100636.81
2023-01-19T21:01:38.600Z,100640.06
2023-01-19T21:04:12.028Z,100644.88
2023-01-19T21:06:45.031Z,100647.09
2023-01-19T21:09:18.554Z,100646.50
2023-01-19T21:11:52.089Z,100649.28
2023-01-19T21:14:24.931Z,100655.03
2023-01-19T21:16:58.584Z,100661.41
2023-01-19T21:19:31.264Z,100661.56
2023-01-19T21:22:03.947Z,100672.44
2023-01-19T21:24:36.881Z,100680.97
2023-01-19T21:27:09.416Z,100685.16
2023-01-19T21:29:41.977Z,100692.78
2023-01-19T21:32:15.398Z,100700.69
2023-01-19T21:34:48.393Z,100703.63
2023-01-19T21:37:21.247Z,100703.63
2023-01-19T21:39:53.814Z,100720.38
2023-01-19T21:42:26.593Z,100716.50
2023-01-19T21:45:00.240Z,100718.03
2023-01-19T21:47:38.423Z,100719.75
2023-01-19T21:50:11.633Z,100721.88
2023-01-19T21:52:57.222Z,100706.13
2023-01-19T21:55:29.952Z,100710.75
2023-01-19T21:58:11.927Z,100726.38
2023-01-19T22:00:45.665Z,100724.66
2023-01-19T22:03:18.344Z,100714.25
2023-01-19T22:05:58.312Z,100730.03
2023-01-19T22:08:31.059Z,100722.75
2023-01-19T22:11:19.788Z,100736.06
2023-01-19T22:13:53.319Z,100726.31
2023-01-19T22:16:27.017Z,100740.50
2023-01-19T22:19:02.248Z,100742.53
2023-01-19T22:21:36.011Z,100743.91
2023-01-19T22:24:08.825Z,100744.19
2023-01-19T22:26:41.558Z,100744.00
2023-01-19T22:29:14.195Z,100748.34
2023-01-19T22:31:47.240Z,100746.91
2023-01-19T22:34:22.728Z,100747.69
2023-01-19T22:36:55.395Z,100746.75
2023-01-19T22:39:28.910Z,100752.63
2023-01-19T22:42:01.571Z,100747.31
2023-01-19T22:44:34.335Z,100745.31
2023-01-19T22:47:06.987Z,100751.97
2023-01-19T22:49:40.684Z,100748.72
2023-01-19T22:52:13.213Z,100751.00
2023-01-19T22:54:45.931Z,100753.03
2023-01-19T22:57:18.467Z,100755.34
2023-01-19T22:59:51.192Z,100741.56
2023-01-19T23:02:23.795Z,100755.34
2023-01-19T23:04:56.633Z,100760.94
2023-01-19T23:07:29.299Z,100753.78
2023-01-19T23:10:01.967Z,100764.50
2023-01-19T23:12:34.598Z,100759.88
2023-01-19T23:15:08.183Z,100756.59
2023-01-19T23:17:47.257Z,100749.19
2023-01-19T23:20:20.593Z,100756.00
2023-01-19T23:22:53.116Z,100753.19
2023-01-19T23:25:25.757Z,100752.91
2023-01-19T23:27:58.445Z,100750.31
2023-01-19T23:30:31.128Z,100749.84
2023-01-19T23:33:03.989Z,100753.09
2023-01-19T23:35:36.725Z,100746.75
2023-01-19T23:38:09.407Z,100747.69
2023-01-19T23:40:41.977Z,100748.16
2023-01-19T23:43:16.005Z,100747.88
2023-01-19T23:45:49.796Z,100752.38
2023-01-19T23:48:22.662Z,100749.56
2023-01-19T23:50:55.374Z,100757.66
2023-01-19T23:53:27.935Z,100761.69
2023-01-19T23:56:14.168Z,100765.72
2023-01-19T23:58:53.028Z,100769.47
